sensor_id;sensor_type;location;lat;lon;timestamp;P1;durP1;ratioP1;P2;durP2;ratioP2
4903;SDS011;2467;48.142;11.616;2023-07-13T00:00:27;3.58;;;3.17;;
4903;SDS011;2467;48.142;11.616;2023-07-13T00:00:59;4.57;;;4.13;;
4903;SDS011;2467;48.142;11.616;2023-07-13T00:01:32;4.85;;;4.40;;
4903;SDS011;2467;48.142;11.616;2023-07-13T00:02:04;3.72;;;3.42;;
4903;SDS011;2467;48.142;11.616;2023-07-13T00:02:36;3.92;;;3.55;;
4903;SDS011;2467;48.142;11.616;2023-07-13T00:03:08;5.55;;;4.78;;
4903;SDS011;2467;48.142;11.616;2023-07-13T00:03:44;6.03;;;3.80;;
4903;SDS011;2467;48.142;11.616;2023-07-13T00:04:17;4.13;;;3.83;;
4903;SDS011;2467;48.142;11.616;2023-07-13T00:04:50;3.97;;;3.67;;
4903;SDS011;2467;48.142;11.616;2023-07-13T00:05:23;4.10;;;3.80;;
4903;SDS011;2467;48.142;11.616;2023-07-13T00:05:59;5.85;;;4.13;;
4903;SDS011;2467;48.142;11.616;2023-07-13T00:06:31;4.13;;;3.67;;
4903;SDS011;2467;48.142;11.616;2023-07-13T00:07:04;4.95;;;3.30;;
4903;SDS011;2467;48.142;11.616;2023-07-13T00:07:37;3.42;;;3.22;;
4903;SDS011;2467;48.142;11.616;2023-07-13T00:08:09;4.30;;;3.90;;
4903;SDS011;2467;48.142;11.616;2023-07-13T00:08:42;3.42;;;3.22;;
4903;SDS011;2467;48.142;11.616;2023-07-13T00:09:15;4.00;;;3.00;;
4903;SDS011;2467;48.142;11.616;2023-07-13T00:09:48;3.25;;;3.03;;
4903;SDS011;2467;48.142;11.616;2023-07-13T00:10:20;3.78;;;3.47;;
4903;SDS011;2467;48.142;11.616;2023-07-13T00:10:53;4.03;;;3.65;;
4903;SDS011;2467;48.142;11.616;2023-07-13T00:11:25;4.25;;;3.90;;
4903;SDS011;2467;48.142;11.616;2023-07-13T00:11:58;4.00;;;3.70;;
4903;SDS011;2467;48.142;11.616;2023-07-13T00:12:31;4.50;;;3.65;;
4903;SDS011;2467;48.142;11.616;2023-07-13T00:13:06;3.88;;;3.58;;
4903;SDS011;2467;48.142;11.616;2023-07-13T00:13:38;4.00;;;3.47;;
4903;SDS011;2467;48.142;11.616;2023-07-13T00:14:11;3.78;;;3.47;;
4903;SDS011;2467;48.142;11.616;2023-07-13T00:14:43;4.20;;;3.60;;
4903;SDS011;2467;48.142;11.616;2023-07-13T00:15:18;4.15;;;3.28;;
4903;SDS011;2467;48.142;11.616;2023-07-13T00:15:53;4.22;;;3.83;;
4903;SDS011;2467;48.142;11.616;2023-07-13T00:16:27;4.05;;;3.72;;
4903;SDS011;2467;48.142;11.616;2023-07-13T00:16:59;4.13;;;3.72;;
4903;SDS011;2467;48.142;11.616;2023-07-13T00:17:31;4.63;;;4.22;;
4903;SDS011;2467;48.142;11.616;2023-07-13T00:18:03;3.70;;;3.45;;
4903;SDS011;2467;48.142;11.616;2023-07-13T00:18:36;4.55;;;4.15;;
4903;SDS011;2467;48.142;11.616;2023-07-13T00:19:09;3.85;;;3.53;;
4903;SDS011;2467;48.142;11.616;2023-07-13T00:19:40;3.80;;;3.50;;
4903;SDS011;2467;48.142;11.616;2023-07-13T00:20:12;3.28;;;2.90;;
4903;SDS011;2467;48.142;11.616;2023-07-13T00:20:45;3.80;;;3.50;;
4903;SDS011;2467;48.142;11.616;2023-07-13T00:21:17;3.28;;;3.08;;
4903;SDS011;2467;48.142;11.616;2023-07-13T00:21:49;4.07;;;3.72;;
4903;SDS011;2467;48.142;11.616;2023-07-13T00:22:21;3.78;;;3.30;;
4903;SDS011;2467;48.142;11.616;2023-07-13T00:22:56;3.88;;;3.17;;
4903;SDS011;2467;48.142;11.616;2023-07-13T00:23:30;3.65;;;3.35;;
4903;SDS011;2467;48.142;11.616;2023-07-13T00:24:02;3.80;;;3.50;;
4903;SDS011;2467;48.142;11.616;2023-07-13T00:24:35;5.28;;;3.90;;
4903;SDS011;2467;48.142;11.616;2023-07-13T00:25:08;4.00;;;3.60;;
4903;SDS011;2467;48.142;11.616;2023-07-13T00:25:41;3.70;;;3.50;;
4903;SDS011;2467;48.142;11.616;2023-07-13T00:26:13;3.75;;;3.45;;
4903;SDS011;2467;48.142;11.616;2023-07-13T00:26:46;3.60;;;3.30;;
4903;SDS011;2467;48.142;11.616;2023-07-13T00:27:18;5.88;;;3.55;;
4903;SDS011;2467;48.142;11.616;2023-07-13T00:27:50;2.80;;;2.60;;
4903;SDS011;2467;48.142;11.616;2023-07-13T00:28:22;3.58;;;3.38;;
4903;SDS011;2467;48.142;11.616;2023-07-13T00:28:55;3.50;;;3.30;;
4903;SDS011;2467;48.142;11.616;2023-07-13T00:29:27;3.25;;;3.05;;
4903;SDS011;2467;48.142;11.616;2023-07-13T00:30:00;3.95;;;3.55;;
4903;SDS011;2467;48.142;11.616;2023-07-13T00:30:34;3.67;;;3.40;;
4903;SDS011;2467;48.142;11.616;2023-07-13T00:31:08;3.95;;;3.65;;
4903;SDS011;2467;48.142;11.616;2023-07-13T00:31:40;4.78;;;4.32;;
4903;SDS011;2467;48.142;11.616;2023-07-13T00:32:12;4.00;;;3.70;;
4903;SDS011;2467;48.142;11.616;2023-07-13T00:32:44;3.95;;;3.67;;
4903;SDS011;2467;48.142;11.616;2023-07-13T00:33:17;3.55;;;3.22;;
4903;SDS011;2467;48.142;11.616;2023-07-13T00:33:49;3.30;;;3.00;;
4903;SDS011;2467;48.142;11.616;2023-07-13T00:34:21;3.75;;;3.45;;
4903;SDS011;2467;48.142;11.616;2023-07-13T00:34:53;4.57;;;3.30;;
4903;SDS011;2467;48.142;11.616;2023-07-13T00:35:26;5.13;;;3.67;;
4903;SDS011;2467;48.142;11.616;2023-07-13T00:35:58;2.90;;;2.63;;
4903;SDS011;2467;48.142;11.616;2023-07-13T00:36:29;4.13;;;3.50;;
4903;SDS011;2467;48.142;11.616;2023-07-13T00:37:03;3.60;;;3.25;;
4903;SDS011;2467;48.142;11.616;2023-07-13T00:37:37;3.13;;;2.92;;
4903;SDS011;2467;48.142;11.616;2023-07-13T00:38:09;3.88;;;3.58;;
4903;SDS011;2467;48.142;11.616;2023-07-13T00:38:41;3.70;;;3.33;;
4903;SDS011;2467;48.142;11.616;2023-07-13T00:39:14;4.75;;;3.38;;
4903;SDS011;2467;48.142;11.616;2023-07-13T00:39:46;3.63;;;3.30;;
4903;SDS011;2467;48.142;11.616;2023-07-13T00:40:18;3.63;;;3.35;;
4903;SDS011;2467;48.142;11.616;2023-07-13T00:40:50;3.30;;;3.10;;
4903;SDS011;2467;48.142;11.616;2023-07-13T00:41:23;3.63;;;3.10;;
4903;SDS011;2467;48.142;11.616;2023-07-13T00:41:55;3.08;;;2.88;;
4903;SDS011;2467;48.142;11.616;2023-07-13T00:42:27;4.15;;;3.70;;
4903;SDS011;2467;48.142;11.616;2023-07-13T00:42:59;5.50;;;3.00;;
4903;SDS011;2467;48.142;11.616;2023-07-13T00:43:32;3.10;;;2.90;;
4903;SDS011;2467;48.142;11.616;2023-07-13T00:44:04;3.05;;;2.78;;
4903;SDS011;2467;48.142;11.616;2023-07-13T00:44:36;3.38;;;3.08;;
4903;SDS011;2467;48.142;11.616;2023-07-13T00:46:19;3.97;;;3.67;;
4903;SDS011;2467;48.142;11.616;2023-07-13T00:46:56;3.10;;;2.80;;
4903;SDS011;2467;48.142;11.616;2023-07-13T00:47:29;3.05;;;2.85;;
4903;SDS011;2467;48.142;11.616;2023-07-13T00:48:01;3.65;;;3.35;;
4903;SDS011;2467;48.142;11.616;2023-07-13T00:48:34;4.35;;;3.10;;
4903;SDS011;2467;48.142;11.616;2023-07-13T00:49:09;3.45;;;3.17;;
4903;SDS011;2467;48.142;11.616;2023-07-13T00:49:45;4.40;;;3.70;;
4903;SDS011;2467;48.142;11.616;2023-07-13T00:50:17;3.20;;;2.95;;
4903;SDS011;2467;48.142;11.616;2023-07-13T00:50:51;3.30;;;3.10;;
4903;SDS011;2467;48.142;11.616;2023-07-13T00:51:28;3.17;;;2.83;;
4903;SDS011;2467;48.142;11.616;2023-07-13T00:52:07;3.25;;;2.95;;
4903;SDS011;2467;48.142;11.616;2023-07-13T00:52:43;3.63;;;3.25;;
4903;SDS011;2467;48.142;11.616;2023-07-13T00:53:17;3.20;;;2.90;;
4903;SDS011;2467;48.142;11.616;2023-07-13T00:53:51;3.67;;;3.38;;
4903;SDS011;2467;48.142;11.616;2023-07-13T00:54:27;3.00;;;2.80;;
4903;SDS011;2467;48.142;11.616;2023-07-13T00:55:02;3.75;;;3.38;;
4903;SDS011;2467;48.142;11.616;2023-07-13T00:55:34;3.28;;;3.00;;
4903;SDS011;2467;48.142;11.616;2023-07-13T00:56:06;3.88;;;3.47;;
4903;SDS011;2467;48.142;11.616;2023-07-13T00:56:40;4.53;;;3.35;;
4903;SDS011;2467;48.142;11.616;2023-07-13T00:57:16;3.40;;;3.10;;
4903;SDS011;2467;48.142;11.616;2023-07-13T00:57:51;2.88;;;2.67;;
4903;SDS011;2467;48.142;11.616;2023-07-13T00:58:24;3.13;;;2.92;;
4903;SDS011;2467;48.142;11.616;2023-07-13T00:58:57;2.60;;;2.40;;
4903;SDS011;2467;48.142;11.616;2023-07-13T00:59:30;6.82;;;3.08;;
4903;SDS011;2467;48.142;11.616;2023-07-13T01:00:04;3.28;;;2.97;;
4903;SDS011;2467;48.142;11.616;2023-07-13T01:00:40;3.72;;;3.45;;
4903;SDS011;2467;48.142;11.616;2023-07-13T01:01:12;3.35;;;3.08;;
4903;SDS011;2467;48.142;11.616;2023-07-13T01:01:46;4.05;;;3.10;;
4903;SDS011;2467;48.142;11.616;2023-07-13T01:02:19;3.30;;;3.10;;
4903;SDS011;2467;48.142;11.616;2023-07-13T01:02:53;2.78;;;2.58;;
4903;SDS011;2467;48.142;11.616;2023-07-13T01:03:25;3.30;;;3.05;;
4903;SDS011;2467;48.142;11.616;2023-07-13T01:03:57;3.00;;;2.70;;
4903;SDS011;2467;48.142;11.616;2023-07-13T01:04:29;2.95;;;2.78;;
4903;SDS011;2467;48.142;11.616;2023-07-13T01:05:01;3.30;;;3.05;;
4903;SDS011;2467;48.142;11.616;2023-07-13T01:05:39;3.42;;;3.22;;
4903;SDS011;2467;48.142;11.616;2023-07-13T01:06:11;5.03;;;3.42;;
4903;SDS011;2467;48.142;11.616;2023-07-13T01:06:45;3.08;;;2.88;;
4903;SDS011;2467;48.142;11.616;2023-07-13T01:07:18;3.13;;;2.80;;
4903;SDS011;2467;48.142;11.616;2023-07-13T01:07:50;2.60;;;2.40;;
4903;SDS011;2467;48.142;11.616;2023-07-13T01:08:24;4.60;;;3.35;;
4903;SDS011;2467;48.142;11.616;2023-07-13T01:08:56;3.30;;;3.00;;
4903;SDS011;2467;48.142;11.616;2023-07-13T01:09:29;2.88;;;2.67;;
4903;SDS011;2467;48.142;11.616;2023-07-13T01:10:02;3.75;;;3.45;;
4903;SDS011;2467;48.142;11.616;2023-07-13T01:10:34;5.00;;;3.97;;
4903;SDS011;2467;48.142;11.616;2023-07-13T01:11:10;3.25;;;2.95;;
4903;SDS011;2467;48.142;11.616;2023-07-13T01:11:42;3.53;;;3.33;;
4903;SDS011;2467;48.142;11.616;2023-07-13T01:12:16;2.92;;;2.72;;
4903;SDS011;2467;48.142;11.616;2023-07-13T01:12:48;3.67;;;3.40;;
4903;SDS011;2467;48.142;11.616;2023-07-13T01:13:20;5.10;;;3.40;;
4903;SDS011;2467;48.142;11.616;2023-07-13T01:13:52;3.42;;;3.15;;
4903;SDS011;2467;48.142;11.616;2023-07-13T01:14:25;3.53;;;3.22;;
4903;SDS011;2467;48.142;11.616;2023-07-13T01:14:57;3.13;;;2.92;;
4903;SDS011;2467;48.142;11.616;2023-07-13T01:15:33;4.50;;;3.60;;
4903;SDS011;2467;48.142;11.616;2023-07-13T01:16:13;3.40;;;3.20;;
4903;SDS011;2467;48.142;11.616;2023-07-13T01:16:50;3.08;;;2.88;;
4903;SDS011;2467;48.142;11.616;2023-07-13T01:17:23;3.30;;;3.10;;
4903;SDS011;2467;48.142;11.616;2023-07-13T01:17:57;3.40;;;3.10;;
4903;SDS011;2467;48.142;11.616;2023-07-13T01:18:29;5.00;;;2.78;;
4903;SDS011;2467;48.142;11.616;2023-07-13T01:19:01;3.00;;;2.45;;
4903;SDS011;2467;48.142;11.616;2023-07-13T01:19:38;5.13;;;3.30;;
4903;SDS011;2467;48.142;11.616;2023-07-13T01:20:13;3.20;;;3.00;;
4903;SDS011;2467;48.142;11.616;2023-07-13T01:20:49;3.97;;;2.65;;
4903;SDS011;2467;48.142;11.616;2023-07-13T01:21:22;3.65;;;3.05;;
4903;SDS011;2467;48.142;11.616;2023-07-13T01:21:53;3.47;;;2.80;;
4903;SDS011;2467;48.142;11.616;2023-07-13T01:22:26;3.75;;;3.45;;
4903;SDS011;2467;48.142;11.616;2023-07-13T01:22:58;2.85;;;2.65;;
4903;SDS011;2467;48.142;11.616;2023-07-13T01:23:31;3.10;;;2.90;;
4903;SDS011;2467;48.142;11.616;2023-07-13T01:24:03;3.25;;;2.97;;
4903;SDS011;2467;48.142;11.616;2023-07-13T01:24:37;2.92;;;2.60;;
4903;SDS011;2467;48.142;11.616;2023-07-13T01:25:10;2.90;;;2.70;;
4903;SDS011;2467;48.142;11.616;2023-07-13T01:25:42;3.25;;;2.95;;
4903;SDS011;2467;48.142;11.616;2023-07-13T01:26:14;3.30;;;3.00;;
4903;SDS011;2467;48.142;11.616;2023-07-13T01:26:47;3.20;;;3.00;;
4903;SDS011;2467;48.142;11.616;2023-07-13T01:27:20;4.45;;;2.95;;
4903;SDS011;2467;48.142;11.616;2023-07-13T01:27:56;3.75;;;2.75;;
4903;SDS011;2467;48.142;11.616;2023-07-13T01:28:28;3.40;;;3.10;;
4903;SDS011;2467;48.142;11.616;2023-07-13T01:29:01;3.65;;;3.28;;
4903;SDS011;2467;48.142;11.616;2023-07-13T01:29:34;2.83;;;2.45;;
4903;SDS011;2467;48.142;11.616;2023-07-13T01:30:13;6.75;;;2.95;;
4903;SDS011;2467;48.142;11.616;2023-07-13T01:30:45;2.67;;;2.47;;
4903;SDS011;2467;48.142;11.616;2023-07-13T01:31:17;2.70;;;2.50;;
4903;SDS011;2467;48.142;11.616;2023-07-13T01:31:49;3.42;;;3.05;;
4903;SDS011;2467;48.142;11.616;2023-07-13T01:32:23;3.22;;;2.92;;
4903;SDS011;2467;48.142;11.616;2023-07-13T01:32:56;3.42;;;3.22;;
4903;SDS011;2467;48.142;11.616;2023-07-13T01:33:28;3.15;;;2.92;;
4903;SDS011;2467;48.142;11.616;2023-07-13T01:34:00;3.20;;;2.90;;
4903;SDS011;2467;48.142;11.616;2023-07-13T01:34:33;2.85;;;2.67;;
4903;SDS011;2467;48.142;11.616;2023-07-13T01:35:05;2.92;;;2.72;;
4903;SDS011;2467;48.142;11.616;2023-07-13T01:35:37;3.05;;;2.75;;
4903;SDS011;2467;48.142;11.616;2023-07-13T01:36:11;3.10;;;2.90;;
4903;SDS011;2467;48.142;11.616;2023-07-13T01:36:44;2.70;;;2.50;;
4903;SDS011;2467;48.142;11.616;2023-07-13T01:37:16;5.25;;;3.00;;
4903;SDS011;2467;48.142;11.616;2023-07-13T01:37:48;2.92;;;2.72;;
4903;SDS011;2467;48.142;11.616;2023-07-13T01:38:21;4.07;;;3.78;;
4903;SDS011;2467;48.142;11.616;2023-07-13T01:38:55;3.13;;;2.92;;
4903;SDS011;2467;48.142;11.616;2023-07-13T01:39:27;3.83;;;2.90;;
4903;SDS011;2467;48.142;11.616;2023-07-13T01:39:59;3.60;;;3.30;;
4903;SDS011;2467;48.142;11.616;2023-07-13T01:40:31;4.00;;;3.70;;
4903;SDS011;2467;48.142;11.616;2023-07-13T01:41:04;3.55;;;3.22;;
4903;SDS011;2467;48.142;11.616;2023-07-13T01:41:36;6.20;;;3.35;;
4903;SDS011;2467;48.142;11.616;2023-07-13T01:42:08;3.00;;;2.80;;
4903;SDS011;2467;48.142;11.616;2023-07-13T01:42:41;2.70;;;2.50;;
4903;SDS011;2467;48.142;11.616;2023-07-13T01:43:13;2.75;;;2.55;;
4903;SDS011;2467;48.142;11.616;2023-07-13T01:43:46;2.92;;;2.70;;
4903;SDS011;2467;48.142;11.616;2023-07-13T01:44:18;3.00;;;2.80;;
4903;SDS011;2467;48.142;11.616;2023-07-13T01:44:50;3.10;;;2.90;;
4903;SDS011;2467;48.142;11.616;2023-07-13T01:45:22;3.20;;;3.00;;
4903;SDS011;2467;48.142;11.616;2023-07-13T01:45:54;3.05;;;2.85;;
4903;SDS011;2467;48.142;11.616;2023-07-13T01:46:47;3.08;;;2.78;;
4903;SDS011;2467;48.142;11.616;2023-07-13T01:47:18;4.00;;;2.72;;
4903;SDS011;2467;48.142;11.616;2023-07-13T01:47:50;3.90;;;2.97;;
4903;SDS011;2467;48.142;11.616;2023-07-13T01:48:23;4.72;;;4.30;;
4903;SDS011;2467;48.142;11.616;2023-07-13T01:48:55;3.28;;;2.92;;
4903;SDS011;2467;48.142;11.616;2023-07-13T01:49:27;3.70;;;3.03;;
4903;SDS011;2467;48.142;11.616;2023-07-13T01:50:00;4.38;;;3.75;;
4903;SDS011;2467;48.142;11.616;2023-07-13T01:50:32;3.47;;;3.17;;
4903;SDS011;2467;48.142;11.616;2023-07-13T01:51:04;3.50;;;3.13;;
4903;SDS011;2467;48.142;11.616;2023-07-13T01:51:37;2.97;;;2.65;;
4903;SDS011;2467;48.142;11.616;2023-07-13T01:52:10;3.70;;;3.05;;
4903;SDS011;2467;48.142;11.616;2023-07-13T01:52:42;3.70;;;3.10;;
4903;SDS011;2467;48.142;11.616;2023-07-13T01:53:13;2.90;;;2.65;;
4903;SDS011;2467;48.142;11.616;2023-07-13T01:53:45;3.72;;;3.42;;
4903;SDS011;2467;48.142;11.616;2023-07-13T01:54:18;3.17;;;2.97;;
4903;SDS011;2467;48.142;11.616;2023-07-13T01:54:50;3.92;;;3.53;;
4903;SDS011;2467;48.142;11.616;2023-07-13T01:55:22;4.13;;;2.72;;
4903;SDS011;2467;48.142;11.616;2023-07-13T01:55:54;2.75;;;2.58;;
4903;SDS011;2467;48.142;11.616;2023-07-13T01:56:27;3.70;;;3.40;;
4903;SDS011;2467;48.142;11.616;2023-07-13T01:56:59;3.13;;;2.80;;
4903;SDS011;2467;48.142;11.616;2023-07-13T01:57:30;3.15;;;2.95;;
4903;SDS011;2467;48.142;11.616;2023-07-13T01:58:03;3.53;;;3.20;;
4903;SDS011;2467;48.142;11.616;2023-07-13T01:58:36;3.05;;;2.85;;
4903;SDS011;2467;48.142;11.616;2023-07-13T01:59:08;3.00;;;2.80;;
4903;SDS011;2467;48.142;11.616;2023-07-13T01:59:42;3.30;;;3.10;;
4903;SDS011;2467;48.142;11.616;2023-07-13T02:00:14;4.00;;;3.70;;
4903;SDS011;2467;48.142;11.616;2023-07-13T02:00:47;3.28;;;2.90;;
4903;SDS011;2467;48.142;11.616;2023-07-13T02:01:20;3.50;;;3.17;;
4903;SDS011;2467;48.142;11.616;2023-07-13T02:01:52;3.78;;;3.47;;
4903;SDS011;2467;48.142;11.616;2023-07-13T02:02:24;3.00;;;2.80;;
4903;SDS011;2467;48.142;11.616;2023-07-13T02:02:57;3.05;;;2.85;;
4903;SDS011;2467;48.142;11.616;2023-07-13T02:03:29;3.70;;;3.40;;
4903;SDS011;2467;48.142;11.616;2023-07-13T02:04:13;3.60;;;3.30;;
4903;SDS011;2467;48.142;11.616;2023-07-13T02:04:46;3.60;;;3.30;;
4903;SDS011;2467;48.142;11.616;2023-07-13T02:05:18;3.45;;;3.22;;
4903;SDS011;2467;48.142;11.616;2023-07-13T02:05:50;5.43;;;4.07;;
4903;SDS011;2467;48.142;11.616;2023-07-13T02:06:23;3.25;;;3.05;;
4903;SDS011;2467;48.142;11.616;2023-07-13T02:06:56;3.40;;;3.10;;
4903;SDS011;2467;48.142;11.616;2023-07-13T02:07:28;4.55;;;4.00;;
4903;SDS011;2467;48.142;11.616;2023-07-13T02:08:00;3.30;;;3.00;;
4903;SDS011;2467;48.142;11.616;2023-07-13T02:08:32;3.30;;;3.10;;
4903;SDS011;2467;48.142;11.616;2023-07-13T02:09:04;4.18;;;3.88;;
4903;SDS011;2467;48.142;11.616;2023-07-13T02:09:36;3.72;;;3.42;;
4903;SDS011;2467;48.142;11.616;2023-07-13T02:10:09;3.40;;;3.20;;
4903;SDS011;2467;48.142;11.616;2023-07-13T02:10:41;3.38;;;3.17;;
4903;SDS011;2467;48.142;11.616;2023-07-13T02:11:14;4.88;;;3.90;;
4903;SDS011;2467;48.142;11.616;2023-07-13T02:11:46;4.70;;;3.33;;
4903;SDS011;2467;48.142;11.616;2023-07-13T02:12:19;4.18;;;3.88;;
4903;SDS011;2467;48.142;11.616;2023-07-13T02:12:51;3.75;;;3.45;;
4903;SDS011;2467;48.142;11.616;2023-07-13T02:13:24;4.13;;;3.78;;
4903;SDS011;2467;48.142;11.616;2023-07-13T02:13:56;4.15;;;3.60;;
4903;SDS011;2467;48.142;11.616;2023-07-13T02:14:27;4.18;;;3.78;;
4903;SDS011;2467;48.142;11.616;2023-07-13T02:15:00;4.03;;;3.72;;
4903;SDS011;2467;48.142;11.616;2023-07-13T02:15:32;4.05;;;3.17;;
4903;SDS011;2467;48.142;11.616;2023-07-13T02:16:05;4.50;;;4.20;;
4903;SDS011;2467;48.142;11.616;2023-07-13T02:16:37;3.60;;;3.40;;
4903;SDS011;2467;48.142;11.616;2023-07-13T02:17:09;4.03;;;3.80;;
4903;SDS011;2467;48.142;11.616;2023-07-13T02:17:42;5.38;;;4.35;;
4903;SDS011;2467;48.142;11.616;2023-07-13T02:18:14;3.80;;;3.53;;
4903;SDS011;2467;48.142;11.616;2023-07-13T02:18:48;4.25;;;3.95;;
4903;SDS011;2467;48.142;11.616;2023-07-13T02:19:23;4.82;;;4.43;;
4903;SDS011;2467;48.142;11.616;2023-07-13T02:19:55;4.00;;;3.65;;
4903;SDS011;2467;48.142;11.616;2023-07-13T02:20:28;4.13;;;3.63;;
4903;SDS011;2467;48.142;11.616;2023-07-13T02:20:59;4.20;;;3.90;;
4903;SDS011;2467;48.142;11.616;2023-07-13T02:21:31;4.63;;;4.32;;
4903;SDS011;2467;48.142;11.616;2023-07-13T02:22:06;3.55;;;3.35;;
4903;SDS011;2467;48.142;11.616;2023-07-13T02:22:38;4.10;;;3.80;;
4903;SDS011;2467;48.142;11.616;2023-07-13T02:23:09;5.22;;;3.88;;
4903;SDS011;2467;48.142;11.616;2023-07-13T02:23:42;5.38;;;3.85;;
4903;SDS011;2467;48.142;11.616;2023-07-13T02:24:15;4.13;;;3.65;;
4903;SDS011;2467;48.142;11.616;2023-07-13T02:24:48;4.40;;;4.00;;
4903;SDS011;2467;48.142;11.616;2023-07-13T02:25:21;4.32;;;3.95;;
4903;SDS011;2467;48.142;11.616;2023-07-13T02:25:54;5.32;;;4.82;;
4903;SDS011;2467;48.142;11.616;2023-07-13T02:26:26;4.57;;;4.28;;
4903;SDS011;2467;48.142;11.616;2023-07-13T02:26:59;3.92;;;3.67;;
4903;SDS011;2467;48.142;11.616;2023-07-13T02:27:30;4.95;;;3.92;;
4903;SDS011;2467;48.142;11.616;2023-07-13T02:28:03;5.00;;;4.40;;
4903;SDS011;2467;48.142;11.616;2023-07-13T02:28:35;5.15;;;4.40;;
4903;SDS011;2467;48.142;11.616;2023-07-13T02:29:07;8.25;;;4.85;;
4903;SDS011;2467;48.142;11.616;2023-07-13T02:29:39;3.55;;;3.33;;
4903;SDS011;2467;48.142;11.616;2023-07-13T02:30:12;3.78;;;3.45;;
4903;SDS011;2467;48.142;11.616;2023-07-13T02:30:43;4.30;;;4.00;;
4903;SDS011;2467;48.142;11.616;2023-07-13T02:31:16;3.70;;;3.40;;
4903;SDS011;2467;48.142;11.616;2023-07-13T02:31:49;6.00;;;3.38;;
4903;SDS011;2467;48.142;11.616;2023-07-13T02:32:21;3.90;;;3.60;;
4903;SDS011;2467;48.142;11.616;2023-07-13T02:32:53;4.13;;;3.78;;
4903;SDS011;2467;48.142;11.616;2023-07-13T02:33:25;6.00;;;3.97;;
4903;SDS011;2467;48.142;11.616;2023-07-13T02:33:57;3.63;;;3.42;;
4903;SDS011;2467;48.142;11.616;2023-07-13T02:34:29;3.90;;;3.53;;
4903;SDS011;2467;48.142;11.616;2023-07-13T02:35:04;3.80;;;3.50;;
4903;SDS011;2467;48.142;11.616;2023-07-13T02:35:37;4.65;;;4.35;;
4903;SDS011;2467;48.142;11.616;2023-07-13T02:36:09;4.47;;;4.07;;
4903;SDS011;2467;48.142;11.616;2023-07-13T02:36:42;4.22;;;3.83;;
4903;SDS011;2467;48.142;11.616;2023-07-13T02:37:15;4.57;;;4.28;;
4903;SDS011;2467;48.142;11.616;2023-07-13T02:37:49;3.88;;;3.58;;
4903;SDS011;2467;48.142;11.616;2023-07-13T02:38:20;4.43;;;4.03;;
4903;SDS011;2467;48.142;11.616;2023-07-13T02:38:52;4.60;;;4.18;;
4903;SDS011;2467;48.142;11.616;2023-07-13T02:39:24;4.32;;;4.03;;
4903;SDS011;2467;48.142;11.616;2023-07-13T02:39:57;3.85;;;3.55;;
4903;SDS011;2467;48.142;11.616;2023-07-13T02:40:29;4.20;;;3.90;;
4903;SDS011;2467;48.142;11.616;2023-07-13T02:41:04;4.20;;;3.90;;
4903;SDS011;2467;48.142;11.616;2023-07-13T02:41:38;4.47;;;4.07;;
4903;SDS011;2467;48.142;11.616;2023-07-13T02:42:10;5.07;;;4.57;;
4903;SDS011;2467;48.142;11.616;2023-07-13T02:42:42;5.72;;;4.30;;
4903;SDS011;2467;48.142;11.616;2023-07-13T02:43:13;4.32;;;3.95;;
4903;SDS011;2467;48.142;11.616;2023-07-13T02:43:46;8.07;;;4.40;;
4903;SDS011;2467;48.142;11.616;2023-07-13T02:44:18;5.65;;;4.82;;
4903;SDS011;2467;48.142;11.616;2023-07-13T02:44:50;6.40;;;4.10;;
4903;SDS011;2467;48.142;11.616;2023-07-13T02:45:22;5.00;;;4.40;;
4903;SDS011;2467;48.142;11.616;2023-07-13T02:45:55;5.35;;;4.40;;
4903;SDS011;2467;48.142;11.616;2023-07-13T02:46:27;4.78;;;4.47;;
4903;SDS011;2467;48.142;11.616;2023-07-13T02:46:59;5.20;;;4.70;;
4903;SDS011;2467;48.142;11.616;2023-07-13T02:47:31;4.20;;;3.90;;
4903;SDS011;2467;48.142;11.616;2023-07-13T02:48:04;5.00;;;4.60;;
4903;SDS011;2467;48.142;11.616;2023-07-13T02:48:37;4.95;;;4.55;;
4903;SDS011;2467;48.142;11.616;2023-07-13T02:49:10;5.28;;;4.88;;
4903;SDS011;2467;48.142;11.616;2023-07-13T02:49:42;4.55;;;4.20;;
4903;SDS011;2467;48.142;11.616;2023-07-13T02:50:15;5.88;;;5.25;;
4903;SDS011;2467;48.142;11.616;2023-07-13T02:50:47;5.50;;;5.00;;
4903;SDS011;2467;48.142;11.616;2023-07-13T02:51:19;4.20;;;3.90;;
4903;SDS011;2467;48.142;11.616;2023-07-13T02:51:50;4.43;;;3.80;;
4903;SDS011;2467;48.142;11.616;2023-07-13T02:52:25;4.95;;;4.55;;
4903;SDS011;2467;48.142;11.616;2023-07-13T02:52:57;7.07;;;4.93;;
4903;SDS011;2467;48.142;11.616;2023-07-13T02:53:29;5.25;;;4.85;;
4903;SDS011;2467;48.142;11.616;2023-07-13T02:54:01;5.95;;;5.43;;
4903;SDS011;2467;48.142;11.616;2023-07-13T02:54:35;5.80;;;5.30;;
4903;SDS011;2467;48.142;11.616;2023-07-13T02:55:07;8.02;;;4.70;;
4903;SDS011;2467;48.142;11.616;2023-07-13T02:55:39;5.78;;;5.05;;
4903;SDS011;2467;48.142;11.616;2023-07-13T02:56:19;5.63;;;5.13;;
4903;SDS011;2467;48.142;11.616;2023-07-13T02:56:53;4.80;;;4.40;;
4903;SDS011;2467;48.142;11.616;2023-07-13T02:57:25;5.30;;;4.82;;
4903;SDS011;2467;48.142;11.616;2023-07-13T02:57:58;5.28;;;4.88;;
4903;SDS011;2467;48.142;11.616;2023-07-13T02:58:31;5.85;;;5.35;;
4903;SDS011;2467;48.142;11.616;2023-07-13T02:59:02;5.57;;;5.10;;
4903;SDS011;2467;48.142;11.616;2023-07-13T02:59:34;5.55;;;4.93;;
4903;SDS011;2467;48.142;11.616;2023-07-13T03:00:08;6.50;;;5.82;;
4903;SDS011;2467;48.142;11.616;2023-07-13T03:00:40;5.47;;;5.05;;
4903;SDS011;2467;48.142;11.616;2023-07-13T03:01:13;8.27;;;6.43;;
4903;SDS011;2467;48.142;11.616;2023-07-13T03:01:50;5.95;;;5.43;;
4903;SDS011;2467;48.142;11.616;2023-07-13T03:02:23;5.80;;;5.40;;
4903;SDS011;2467;48.142;11.616;2023-07-13T03:02:54;7.18;;;5.97;;
4903;SDS011;2467;48.142;11.616;2023-07-13T03:03:28;6.45;;;5.70;;
4903;SDS011;2467;48.142;11.616;2023-07-13T03:04:01;6.95;;;5.90;;
4903;SDS011;2467;48.142;11.616;2023-07-13T03:04:34;6.32;;;5.82;;
4903;SDS011;2467;48.142;11.616;2023-07-13T03:05:07;6.72;;;6.00;;
4903;SDS011;2467;48.142;11.616;2023-07-13T03:05:42;6.57;;;5.97;;
4903;SDS011;2467;48.142;11.616;2023-07-13T03:06:15;6.55;;;5.95;;
4903;SDS011;2467;48.142;11.616;2023-07-13T03:06:48;6.18;;;5.55;;
4903;SDS011;2467;48.142;11.616;2023-07-13T03:07:20;8.20;;;5.35;;
4903;SDS011;2467;48.142;11.616;2023-07-13T03:07:54;7.75;;;5.53;;
4903;SDS011;2467;48.142;11.616;2023-07-13T03:08:26;7.78;;;5.88;;
4903;SDS011;2467;48.142;11.616;2023-07-13T03:08:58;5.80;;;5.15;;
4903;SDS011;2467;48.142;11.616;2023-07-13T03:09:31;6.47;;;5.80;;
4903;SDS011;2467;48.142;11.616;2023-07-13T03:10:05;6.50;;;5.30;;
4903;SDS011;2467;48.142;11.616;2023-07-13T03:10:38;5.35;;;4.95;;
4903;SDS011;2467;48.142;11.616;2023-07-13T03:11:11;5.40;;;4.90;;
4903;SDS011;2467;48.142;11.616;2023-07-13T03:11:46;7.40;;;6.05;;
4903;SDS011;2467;48.142;11.616;2023-07-13T03:12:18;7.22;;;6.45;;
4903;SDS011;2467;48.142;11.616;2023-07-13T03:12:49;5.35;;;4.97;;
4903;SDS011;2467;48.142;11.616;2023-07-13T03:13:23;4.90;;;4.50;;
4903;SDS011;2467;48.142;11.616;2023-07-13T03:13:54;7.45;;;5.72;;
4903;SDS011;2467;48.142;11.616;2023-07-13T03:14:26;6.10;;;5.57;;
4903;SDS011;2467;48.142;11.616;2023-07-13T03:14:58;5.75;;;5.20;;
4903;SDS011;2467;48.142;11.616;2023-07-13T03:15:31;4.97;;;4.57;;
4903;SDS011;2467;48.142;11.616;2023-07-13T03:16:03;6.47;;;5.93;;
4903;SDS011;2467;48.142;11.616;2023-07-13T03:16:36;5.45;;;5.05;;
4903;SDS011;2467;48.142;11.616;2023-07-13T03:17:07;7.18;;;6.57;;
4903;SDS011;2467;48.142;11.616;2023-07-13T03:17:41;4.63;;;4.22;;
4903;SDS011;2467;48.142;11.616;2023-07-13T03:18:12;7.05;;;6.10;;
4903;SDS011;2467;48.142;11.616;2023-07-13T03:18:45;8.20;;;7.28;;
4903;SDS011;2467;48.142;11.616;2023-07-13T03:19:17;6.80;;;6.03;;
4903;SDS011;2467;48.142;11.616;2023-07-13T03:19:50;5.97;;;5.47;;
4903;SDS011;2467;48.142;11.616;2023-07-13T03:20:22;6.53;;;5.50;;
4903;SDS011;2467;48.142;11.616;2023-07-13T03:20:54;5.70;;;5.10;;
4903;SDS011;2467;48.142;11.616;2023-07-13T03:21:27;5.20;;;4.80;;
4903;SDS011;2467;48.142;11.616;2023-07-13T03:22:00;4.97;;;4.47;;
4903;SDS011;2467;48.142;11.616;2023-07-13T03:22:32;5.10;;;4.70;;